createdAt,value
2017-08-25T00:00:15.898Z,6.13
2017-08-25T00:02:46.542Z,13.30
2017-08-25T00:08:11.596Z,13.00
2017-08-25T00:10:41.844Z,13.83
2017-08-25T00:13:11.590Z,11.93
2017-08-25T00:15:48.350Z,11.60
2017-08-25T00:24:06.953Z,12.37
2017-08-25T00:26:36.626Z,14.90
2017-08-25T00:29:06.490Z,13.03
2017-08-25T00:31:46.485Z,13.57
2017-08-25T00:34:16.146Z,14.37
2017-08-25T00:36:45.830Z,12.80
2017-08-25T00:39:15.438Z,14.53
2017-08-25T00:41:45.213Z,13.33
2017-08-25T00:44:15.637Z,13.20
2017-08-25T00:46:45.283Z,11.40
2017-08-25T00:49:14.936Z,14.43
2017-08-25T00:51:44.526Z,15.80
2017-08-25T00:54:15.192Z,11.50
2017-08-25T00:56:45.434Z,15.67
2017-08-25T00:59:15.199Z,14.97
2017-08-25T01:01:46.284Z,13.50
2017-08-25T01:04:15.907Z,14.07
2017-08-25T01:06:45.485Z,9.67
2017-08-25T01:09:15.450Z,14.17
2017-08-25T01:11:45.072Z,17.80
2017-08-25T01:14:14.652Z,9.30
2017-08-25T01:16:48.093Z,16.13
2017-08-25T01:22:12.698Z,16.50
2017-08-25T01:24:42.273Z,17.37
2017-08-25T01:27:12.130Z,15.17
2017-08-25T01:29:48.374Z,9.37
2017-08-25T01:32:18.101Z,10.10
2017-08-25T01:34:48.106Z,6.50
2017-08-25T01:37:17.769Z,6.90
2017-08-25T01:39:47.435Z,7.77
2017-08-25T01:42:17.609Z,7.40
2017-08-25T01:44:48.332Z,7.60
2017-08-25T01:47:19.577Z,10.13
2017-08-25T01:49:49.289Z,9.73
2017-08-25T01:52:18.863Z,16.20
2017-08-25T01:54:49.325Z,7.10
2017-08-25T02:00:14.137Z,7.03
2017-08-25T02:02:44.479Z,7.63
2017-08-25T02:05:14.220Z,7.60
2017-08-25T02:07:44.340Z,8.20
2017-08-25T02:10:14.632Z,7.93
2017-08-25T02:12:49.087Z,8.50
2017-08-25T02:15:19.350Z,7.57
2017-08-25T02:17:49.192Z,7.40
2017-08-25T02:20:20.151Z,7.50
2017-08-25T02:22:49.824Z,7.60
2017-08-25T02:28:15.657Z,8.80
2017-08-25T02:30:46.062Z,8.33
2017-08-25T02:33:16.534Z,7.63
2017-08-25T02:35:46.705Z,9.40
2017-08-25T02:38:16.370Z,10.13
2017-08-25T02:40:47.684Z,7.83
2017-08-25T02:43:18.020Z,8.03
2017-08-25T02:45:48.308Z,8.03
2017-08-25T02:48:18.384Z,7.00
2017-08-25T02:50:48.523Z,7.27
2017-08-25T02:53:18.454Z,7.37
2017-08-25T02:55:48.054Z,8.00
2017-08-25T02:58:18.621Z,7.97
2017-08-25T03:00:48.946Z,7.90
2017-08-25T03:03:18.534Z,9.00
2017-08-25T03:05:48.872Z,8.90
2017-08-25T03:08:18.572Z,8.83
2017-08-25T03:10:48.145Z,7.70
2017-08-25T03:13:18.254Z,7.60
2017-08-25T03:15:48.332Z,8.50
2017-08-25T03:18:17.924Z,8.40
2017-08-25T03:20:47.627Z,8.27
2017-08-25T03:26:13.227Z,7.73
2017-08-25T03:28:44.012Z,7.93
2017-08-25T03:31:14.450Z,8.60
2017-08-25T03:33:44.839Z,8.33
2017-08-25T03:36:15.325Z,7.80
2017-08-25T03:38:46.255Z,8.43
2017-08-25T03:41:16.719Z,8.60
2017-08-25T03:43:46.806Z,8.00
2017-08-25T03:46:16.469Z,8.40
2017-08-25T03:48:46.038Z,9.00
2017-08-25T03:51:16.630Z,8.40
2017-08-25T03:53:46.379Z,8.67
2017-08-25T03:56:16.745Z,8.60
2017-08-25T03:58:46.309Z,8.70
2017-08-25T04:01:16.625Z,8.60
2017-08-25T04:03:46.573Z,8.70
2017-08-25T04:09:12.237Z,9.00
2017-08-25T04:11:42.718Z,8.90
2017-08-25T04:14:12.288Z,8.43
2017-08-25T04:16:42.286Z,8.50
2017-08-25T04:19:12.267Z,8.73
2017-08-25T04:21:42.063Z,8.90
2017-08-25T04:24:11.664Z,8.33
2017-08-25T04:26:41.348Z,8.10
2017-08-25T04:29:11.688Z,9.20
2017-08-25T04:31:47.920Z,8.77
2017-08-25T04:34:18.246Z,8.60
2017-08-25T04:36:48.286Z,9.17
2017-08-25T04:39:18.553Z,9.07
2017-08-25T04:41:48.402Z,8.97
2017-08-25T05:01:48.956Z,9.57
2017-08-25T05:04:18.530Z,9.33
2017-08-25T05:06:48.952Z,10.20
2017-08-25T05:20:56.427Z,9.87
2017-08-25T05:23:45.476Z,10.10
2017-08-25T05:29:12.804Z,9.90
2017-08-25T05:31:48.001Z,9.87
2017-08-25T05:40:07.664Z,10.93
2017-08-25T05:42:38.619Z,11.00
2017-08-25T05:45:09.002Z,12.77
2017-08-25T05:47:39.526Z,12.57
2017-08-25T05:50:09.361Z,19.03
2017-08-25T05:52:39.763Z,17.63
2017-08-25T05:55:10.122Z,14.90
2017-08-25T05:57:41.054Z,19.60
2017-08-25T06:00:10.915Z,16.53
2017-08-25T06:02:42.267Z,20.30
2017-08-25T06:05:12.468Z,17.50
2017-08-25T06:07:42.520Z,15.97
2017-08-25T06:10:12.890Z,12.50
2017-08-25T06:12:42.895Z,15.70
2017-08-25T06:15:12.596Z,21.07
2017-08-25T06:17:43.020Z,27.63
2017-08-25T06:20:13.075Z,12.77
2017-08-25T06:22:42.945Z,11.13
2017-08-25T06:25:13.290Z,12.43
2017-08-25T06:27:43.285Z,11.80
2017-08-25T06:30:13.233Z,22.30
2017-08-25T06:32:44.143Z,29.93
2017-08-25T06:35:13.748Z,22.97
2017-08-25T06:37:43.337Z,12.77
2017-08-25T06:43:07.465Z,12.90
2017-08-25T06:45:37.983Z,20.77
2017-08-25T06:48:07.968Z,23.70
2017-08-25T06:50:38.026Z,30.43
2017-08-25T06:56:02.896Z,29.20
2017-08-25T06:58:46.252Z,21.27
2017-08-25T07:01:16.777Z,27.80
2017-08-25T07:03:47.492Z,13.70
2017-08-25T07:12:06.745Z,28.73
2017-08-25T07:14:46.527Z,20.40
2017-08-25T07:20:10.882Z,25.53
2017-08-25T07:22:46.847Z,26.43
2017-08-25T07:25:17.085Z,28.43
2017-08-25T07:27:46.662Z,29.70
2017-08-25T07:30:16.252Z,18.07
2017-08-25T07:32:47.265Z,29.43
2017-08-25T07:35:20.160Z,22.47
2017-08-25T07:37:49.885Z,23.90
2017-08-25T07:40:19.476Z,29.67
2017-08-25T07:42:49.755Z,28.57
2017-08-25T07:45:33.685Z,25.93
2017-08-25T07:50:58.176Z,24.90
2017-08-25T07:53:28.364Z,13.73
2017-08-25T07:55:58.023Z,21.50
2017-08-25T07:58:27.609Z,17.00
2017-08-25T08:00:57.552Z,22.83
2017-08-25T08:03:27.176Z,18.67
2017-08-25T08:05:57.813Z,27.97
2017-08-25T08:08:34.744Z,26.23
2017-08-25T08:11:04.556Z,26.90
2017-08-25T08:13:34.124Z,26.60
2017-08-25T08:16:03.889Z,28.37
2017-08-25T08:18:45.699Z,13.40
2017-08-25T08:22:16.136Z,27.80
2017-08-25T08:24:45.714Z,17.60
2017-08-25T08:27:15.501Z,26.70
2017-08-25T08:29:48.673Z,19.83
2017-08-25T08:32:18.364Z,16.50
2017-08-25T08:34:47.939Z,20.37
2017-08-25T08:37:17.755Z,26.17
2017-08-25T08:39:48.310Z,26.03
2017-08-25T08:42:17.940Z,23.77
2017-08-25T08:44:47.576Z,15.77
2017-08-25T08:47:17.671Z,25.60
2017-08-25T08:49:47.325Z,24.43
2017-08-25T08:52:17.034Z,27.57
2017-08-25T08:54:46.940Z,18.30
2017-08-25T09:00:11.456Z,24.03
2017-08-25T09:02:41.273Z,24.07
2017-08-25T09:05:11.496Z,26.20
2017-08-25T09:07:41.108Z,28.27
2017-08-25T09:13:46.679Z,26.40
2017-08-25T09:16:16.335Z,28.60
2017-08-25T09:18:45.913Z,25.50
2017-08-25T09:21:28.288Z,24.00
2017-08-25T09:23:57.871Z,25.40
2017-08-25T09:26:27.451Z,25.10
2017-08-25T09:28:57.230Z,26.40
2017-08-25T09:31:43.078Z,26.23
2017-08-25T09:34:12.700Z,26.00
2017-08-25T09:36:42.303Z,23.10
2017-08-25T09:42:06.711Z,23.10
2017-08-25T09:44:36.534Z,21.90
2017-08-25T09:49:58.777Z,16.30
2017-08-25T09:52:29.682Z,15.40
2017-08-25T09:54:59.921Z,15.67
2017-08-25T09:57:45.810Z,19.23
2017-08-25T10:00:15.537Z,17.97
2017-08-25T10:02:45.195Z,13.37
2017-08-25T10:08:10.482Z,11.57
2017-08-25T10:10:40.149Z,11.43
2017-08-25T10:16:04.469Z,11.27
2017-08-25T10:18:34.879Z,10.50
2017-08-25T10:21:12.132Z,11.23
2017-08-25T10:23:45.321Z,14.60
2017-08-25T10:26:15.643Z,11.43
2017-08-25T10:28:45.216Z,13.20
2017-08-25T10:34:20.903Z,11.90
2017-08-25T10:37:02.240Z,11.60
2017-08-25T10:39:44.532Z,11.73
2017-08-25T10:42:25.749Z,12.43
2017-08-25T10:48:00.426Z,14.03
2017-08-25T10:50:34.776Z,12.33
2017-08-25T10:53:04.394Z,12.90
2017-08-25T10:55:43.911Z,12.40
2017-08-25T10:58:14.230Z,12.90
2017-08-25T11:00:43.967Z,11.63
2017-08-25T11:03:26.305Z,13.23
2017-08-25T11:05:57.286Z,12.80
2017-08-25T11:08:27.701Z,11.60
2017-08-25T11:10:58.218Z,10.93
2017-08-25T11:13:47.483Z,12.17
2017-08-25T11:16:17.070Z,12.30
2017-08-25T11:18:46.874Z,10.50
2017-08-25T11:24:11.742Z,11.00
2017-08-25T11:26:41.314Z,10.17
2017-08-25T11:35:00.897Z,11.33
2017-08-25T11:37:44.337Z,12.80
2017-08-25T11:46:04.097Z,9.87
2017-08-25T11:48:34.168Z,9.83
2017-08-25T11:53:59.265Z,9.83
2017-08-25T11:56:29.553Z,10.77
2017-08-25T11:59:00.172Z,10.10
2017-08-25T12:01:43.722Z,9.10
2017-08-25T12:04:13.840Z,9.00
2017-08-25T12:06:43.551Z,9.93
2017-08-25T12:12:08.614Z,10.37
2017-08-25T12:14:44.669Z,10.10
2017-08-25T12:23:03.153Z,8.50
2017-08-25T12:25:44.961Z,8.70
2017-08-25T12:34:04.749Z,7.90
2017-08-25T12:36:34.311Z,9.40
2017-08-25T12:39:03.977Z,9.10
2017-08-25T12:41:46.008Z,8.90
2017-08-25T12:44:15.671Z,9.63
2017-08-25T12:46:45.252Z,8.67
2017-08-25T12:52:09.696Z,7.20
2017-08-25T12:54:46.021Z,7.30
2017-08-25T13:00:11.419Z,6.00
2017-08-25T13:02:41.007Z,7.30
2017-08-25T13:08:05.113Z,6.47
2017-08-25T13:10:46.924Z,7.27
2017-08-25T13:16:11.573Z,6.70
2017-08-25T13:18:44.133Z,6.03
2017-08-25T13:24:09.018Z,7.13
2017-08-25T13:26:38.613Z,6.83
2017-08-25T13:32:02.637Z,7.10
2017-08-25T13:34:44.425Z,7.87
2017-08-25T13:43:03.422Z,6.27
2017-08-25T13:45:45.327Z,6.40
2017-08-25T13:48:15.036Z,7.07
2017-08-25T13:50:44.767Z,7.37
2017-08-25T13:56:09.192Z,6.87
2017-08-25T13:58:38.922Z,6.20
2017-08-25T14:04:02.913Z,6.03
2017-08-25T14:06:32.475Z,7.23
2017-08-25T14:09:02.084Z,6.60
2017-08-25T14:11:44.290Z,6.80
2017-08-25T14:14:13.910Z,7.70
2017-08-25T14:16:43.571Z,6.77
2017-08-25T14:22:07.788Z,6.80
2017-08-25T14:24:37.362Z,7.17
2017-08-25T14:30:39.115Z,7.00
2017-08-25T14:36:03.480Z,6.40
2017-08-25T14:38:33.045Z,6.23
2017-08-25T14:41:02.646Z,7.17
2017-08-25T14:43:45.452Z,6.93
2017-08-25T14:46:15.069Z,7.00
2017-08-25T14:48:44.745Z,6.50
2017-08-25T14:54:09.481Z,6.30
2017-08-25T14:56:39.089Z,7.73
2017-08-25T15:04:57.689Z,6.83
2017-08-25T15:07:43.533Z,6.57
2017-08-25T15:10:13.169Z,7.60
2017-08-25T15:12:42.741Z,6.90
2017-08-25T15:18:07.247Z,7.30
2017-08-25T15:20:36.906Z,7.53
2017-08-25T15:25:44.360Z,7.30
2017-08-25T15:34:02.904Z,7.50
2017-08-25T15:36:45.420Z,7.80
2017-08-25T15:42:10.019Z,6.23
2017-08-25T15:44:45.843Z,7.20
2017-08-25T15:50:09.810Z,7.87
2017-08-25T15:52:45.760Z,8.53
2017-08-25T16:03:59.776Z,7.47
2017-08-25T16:06:43.356Z,7.33
2017-08-25T16:15:01.903Z,8.47
2017-08-25T16:17:44.153Z,9.10
2017-08-25T16:20:13.793Z,9.03
2017-08-25T16:22:44.066Z,8.70
2017-08-25T16:28:09.135Z,7.50
2017-08-25T16:36:46.796Z,8.20
2017-08-25T16:42:11.218Z,7.60
2017-08-25T16:44:47.007Z,8.17
2017-08-25T16:50:11.736Z,8.30
2017-08-25T16:52:41.332Z,9.53
2017-08-25T16:58:05.270Z,8.37
2017-08-25T17:00:45.158Z,8.70
2017-08-25T17:06:09.844Z,7.93
2017-08-25T17:08:45.865Z,7.37
2017-08-25T17:14:09.750Z,7.40
2017-08-25T17:16:39.326Z,7.87
2017-08-25T17:19:08.982Z,5.70
2017-08-25T17:21:38.560Z,5.70
2017-08-25T17:24:08.223Z,6.03
2017-08-25T17:26:37.807Z,6.07
2017-08-25T17:32:02.673Z,6.00
2017-08-25T17:34:32.246Z,6.90
2017-08-25T17:37:02.638Z,6.13
2017-08-25T17:39:32.221Z,6.20
2017-08-25T17:42:02.395Z,6.70
2017-08-25T17:44:31.990Z,6.67
2017-08-25T17:47:01.625Z,6.40
2017-08-25T17:49:31.196Z,5.63
2017-08-25T17:52:01.021Z,7.07
2017-08-25T17:54:30.602Z,7.07
2017-08-25T17:57:00.555Z,7.43
2017-08-25T17:59:30.186Z,7.20
2017-08-25T18:01:59.867Z,6.77
2017-08-25T18:04:29.706Z,7.03
2017-08-25T18:06:59.357Z,6.37
2017-08-25T18:09:28.926Z,6.20
2017-08-25T18:11:58.594Z,7.23
2017-08-25T18:14:28.222Z,7.47
2017-08-25T18:16:57.967Z,7.37
2017-08-25T18:19:27.614Z,6.23
2017-08-25T18:24:48.570Z,7.97
2017-08-25T18:27:18.146Z,6.67
2017-08-25T18:29:47.786Z,6.50
2017-08-25T18:35:12.104Z,7.40
2017-08-25T18:37:41.681Z,7.40
2017-08-25T18:40:11.309Z,7.13
2017-08-25T18:42:40.958Z,7.60
2017-08-25T18:45:10.625Z,7.77
2017-08-25T18:47:40.194Z,6.80
2017-08-25T18:50:09.846Z,7.57
2017-08-25T18:52:39.535Z,6.53
2017-08-25T18:55:09.180Z,7.53
2017-08-25T18:57:46.707Z,7.83
2017-08-25T19:00:16.399Z,9.50
2017-08-25T19:02:45.970Z,8.80
2017-08-25T19:19:48.979Z,7.60
2017-08-25T19:22:18.540Z,7.70
2017-08-25T19:24:48.146Z,7.23
2017-08-25T19:30:12.085Z,7.87
2017-08-25T19:32:41.677Z,7.87
2017-08-25T19:35:11.350Z,8.07
2017-08-25T19:37:40.959Z,7.80
2017-08-25T19:40:10.614Z,8.53
2017-08-25T19:42:40.190Z,8.13
2017-08-25T19:45:09.829Z,8.40
2017-08-25T19:47:39.419Z,8.03
2017-08-25T19:50:09.175Z,8.40
2017-08-25T19:52:38.905Z,7.20
2017-08-25T19:58:02.902Z,7.90
2017-08-25T20:00:32.483Z,7.57
2017-08-25T20:03:02.065Z,8.20
2017-08-25T20:05:31.699Z,8.60
2017-08-25T20:08:01.265Z,7.47
2017-08-25T20:10:47.698Z,8.97
2017-08-25T20:13:17.270Z,8.43
2017-08-25T20:15:46.842Z,8.13
2017-08-25T20:18:16.475Z,8.17
2017-08-25T20:20:46.095Z,7.67
2017-08-25T20:26:10.523Z,8.63
2017-08-25T20:28:40.110Z,9.30
2017-08-25T20:31:09.728Z,8.50
2017-08-25T20:33:39.284Z,8.63
2017-08-25T20:36:08.866Z,8.60
2017-08-25T20:38:46.881Z,8.50
2017-08-25T20:41:16.458Z,8.47
2017-08-25T20:43:46.065Z,8.70
2017-08-25T20:46:15.695Z,8.20
2017-08-25T20:48:45.273Z,9.33
2017-08-25T20:54:09.801Z,9.00
2017-08-25T20:56:39.378Z,8.30
2017-08-25T20:59:08.986Z,9.40
2017-08-25T21:01:38.747Z,8.30
2017-08-25T21:04:08.326Z,9.70
2017-08-25T21:06:46.360Z,8.23
2017-08-25T21:09:15.933Z,8.17
2017-08-25T21:11:45.504Z,9.47
2017-08-25T21:14:15.104Z,8.57
2017-08-25T21:16:44.664Z,8.60
2017-08-25T21:19:14.230Z,8.30
2017-08-25T21:21:43.836Z,9.47
2017-08-25T21:24:13.413Z,9.30
2017-08-25T21:26:42.986Z,8.97
2017-08-25T21:29:12.592Z,9.10
2017-08-25T21:31:42.182Z,9.43
2017-08-25T21:34:11.762Z,8.90
2017-08-25T21:36:41.393Z,9.20
2017-08-25T21:39:11.000Z,8.33
2017-08-25T21:41:40.617Z,8.50
2017-08-25T21:44:10.333Z,8.80
2017-08-25T21:46:46.776Z,10.80
2017-08-25T21:49:16.358Z,10.17
2017-08-25T21:51:46.047Z,8.57
2017-08-25T21:54:15.881Z,9.37
2017-08-25T21:56:45.461Z,10.30
2017-08-25T21:59:15.053Z,8.53
2017-08-25T22:01:44.699Z,9.90
2017-08-25T22:07:08.895Z,9.90
2017-08-25T22:09:38.787Z,9.20
2017-08-25T22:12:08.391Z,10.80
2017-08-25T22:14:38.032Z,10.17
2017-08-25T22:17:07.714Z,9.73
2017-08-25T22:19:47.292Z,10.00
2017-08-25T22:22:16.867Z,11.00
2017-08-25T22:24:46.473Z,9.90
2017-08-25T22:27:16.056Z,9.43
2017-08-25T22:29:45.682Z,10.77
2017-08-25T22:32:16.280Z,10.00
2017-08-25T22:34:45.862Z,9.37
2017-08-25T22:37:15.449Z,10.40
2017-08-25T22:39:48.409Z,9.50
2017-08-25T22:45:12.314Z,10.00
2017-08-25T22:47:41.906Z,9.90
2017-08-25T22:50:11.477Z,10.10
2017-08-25T22:52:41.092Z,10.27
2017-08-25T22:55:10.838Z,10.07
2017-08-25T22:57:40.463Z,10.23
2017-08-25T23:00:10.109Z,10.97
2017-08-25T23:02:46.628Z,10.43
2017-08-25T23:05:16.240Z,11.07
2017-08-25T23:07:47.245Z,11.17
2017-08-25T23:10:16.856Z,10.13
2017-08-25T23:12:47.525Z,9.97
2017-08-25T23:15:17.181Z,10.37
2017-08-25T23:17:46.758Z,10.33
2017-08-25T23:20:16.386Z,11.47
2017-08-25T23:22:45.971Z,11.60
2017-08-25T23:25:15.584Z,11.30
2017-08-25T23:27:45.648Z,10.43
2017-08-25T23:30:15.501Z,10.87
2017-08-25T23:32:45.106Z,11.07
2017-08-25T23:35:14.856Z,11.03
2017-08-25T23:37:48.250Z,11.53
2017-08-25T23:43:12.474Z,11.60
2017-08-25T23:45:42.071Z,11.43
2017-08-25T23:48:11.659Z,10.97
2017-08-25T23:50:47.751Z,12.13
2017-08-25T23:53:17.324Z,11.07
2017-08-25T23:55:46.974Z,11.30
2017-08-25T23:58:16.557Z,10.70
